Terminal Aerodrome Forecast
Issued by NWS

Current Version | Previous Version | Text Only | Print | Product List | Glossary On
Versions: 1 2 3 4 5 6 7 8 9 10 11 12 13 14
000
FTUS46 KMFR 260549
TAFRBG
TAF
KRBG 260549Z 2606/2706 VRB02KT P6SM -RA BKN035 OVC050
     FM260800 VRB03KT 6SM -RA BKN015 OVC025
     FM260900 35003KT 5SM RA BR SCT005 OVC015
     FM261400 33004KT 5SM -RA BR OVC015
     FM262000 32004KT P6SM -SHRA BKN015 OVC025
     FM270000 34003KT P6SM BKN025 OVC035=

USA.gov is the U.S. government's official web portal to all federal, state and local government web resources and services.